sensor_id;sensor_type;location;lat;lon;timestamp;temperature;humidity
25346;DHT22;13300;51.032;3.710;2023-07-16T00:02:22;17.20;99.90
25346;DHT22;13300;51.032;3.710;2023-07-16T00:04:48;17.20;99.90
25346;DHT22;13300;51.032;3.710;2023-07-16T00:07:14;17.20;99.90
25346;DHT22;13300;51.032;3.710;2023-07-16T00:09:39;17.20;99.90
25346;DHT22;13300;51.032;3.710;2023-07-16T00:12:05;17.20;99.90
25346;DHT22;13300;51.032;3.710;2023-07-16T00:14:31;17.10;99.90
25346;DHT22;13300;51.032;3.710;2023-07-16T00:16:57;17.20;99.90
25346;DHT22;13300;51.032;3.710;2023-07-16T00:19:23;17.20;99.90
25346;DHT22;13300;51.032;3.710;2023-07-16T00:21:49;17.10;99.90
25346;DHT22;13300;51.032;3.710;2023-07-16T00:24:15;17.10;99.90
25346;DHT22;13300;51.032;3.710;2023-07-16T00:26:40;17.20;99.90
25346;DHT22;13300;51.032;3.710;2023-07-16T00:29:06;17.00;99.90
25346;DHT22;13300;51.032;3.710;2023-07-16T00:31:31;17.00;99.90
25346;DHT22;13300;51.032;3.710;2023-07-16T00:33:57;16.90;99.90
25346;DHT22;13300;51.032;3.710;2023-07-16T00:36:23;17.00;99.90
25346;DHT22;13300;51.032;3.710;2023-07-16T00:38:49;17.00;99.90
25346;DHT22;13300;51.032;3.710;2023-07-16T00:41:15;16.90;99.90
25346;DHT22;13300;51.032;3.710;2023-07-16T00:43:41;16.90;99.90
25346;DHT22;13300;51.032;3.710;2023-07-16T00:46:08;16.90;99.90
25346;DHT22;13300;51.032;3.710;2023-07-16T00:48:34;16.90;99.90
25346;DHT22;13300;51.032;3.710;2023-07-16T00:51:01;16.90;99.90
25346;DHT22;13300;51.032;3.710;2023-07-16T00:53:28;17.00;99.90
25346;DHT22;13300;51.032;3.710;2023-07-16T00:55:54;16.90;99.90
25346;DHT22;13300;51.032;3.710;2023-07-16T00:58:19;16.90;99.90
25346;DHT22;13300;51.032;3.710;2023-07-16T01:00:45;16.90;99.90
25346;DHT22;13300;51.032;3.710;2023-07-16T01:03:13;17.00;99.90
25346;DHT22;13300;51.032;3.710;2023-07-16T01:05:55;16.90;99.90
25346;DHT22;13300;51.032;3.710;2023-07-16T01:11:03;16.90;99.90
25346;DHT22;13300;51.032;3.710;2023-07-16T01:13:30;16.90;99.90
25346;DHT22;13300;51.032;3.710;2023-07-16T01:15:56;16.90;99.90
25346;DHT22;13300;51.032;3.710;2023-07-16T01:18:21;16.80;99.90
25346;DHT22;13300;51.032;3.710;2023-07-16T01:20:47;16.90;99.90
25346;DHT22;13300;51.032;3.710;2023-07-16T01:29:03;17.00;99.90
25346;DHT22;13300;51.032;3.710;2023-07-16T01:31:29;17.00;99.90
25346;DHT22;13300;51.032;3.710;2023-07-16T01:33:55;17.10;99.90
25346;DHT22;13300;51.032;3.710;2023-07-16T01:36:23;17.10;99.90
25346;DHT22;13300;51.032;3.710;2023-07-16T01:38:49;17.10;99.90
25346;DHT22;13300;51.032;3.710;2023-07-16T01:41:15;17.10;99.90
25346;DHT22;13300;51.032;3.710;2023-07-16T01:43:41;17.00;99.90
25346;DHT22;13300;51.032;3.710;2023-07-16T01:46:09;17.00;99.90
25346;DHT22;13300;51.032;3.710;2023-07-16T01:48:36;17.10;99.90
25346;DHT22;13300;51.032;3.710;2023-07-16T01:51:02;17.10;99.90
25346;DHT22;13300;51.032;3.710;2023-07-16T01:53:29;17.10;99.90
25346;DHT22;13300;51.032;3.710;2023-07-16T01:55:55;17.10;99.90
25346;DHT22;13300;51.032;3.710;2023-07-16T01:58:21;17.10;99.90
25346;DHT22;13300;51.032;3.710;2023-07-16T02:00:50;17.10;99.90
25346;DHT22;13300;51.032;3.710;2023-07-16T02:03:15;17.10;99.90
25346;DHT22;13300;51.032;3.710;2023-07-16T02:05:41;17.20;99.90
25346;DHT22;13300;51.032;3.710;2023-07-16T02:08:07;17.20;99.90
25346;DHT22;13300;51.032;3.710;2023-07-16T02:10:33;17.20;99.90
25346;DHT22;13300;51.032;3.710;2023-07-16T02:12:58;17.10;99.90
25346;DHT22;13300;51.032;3.710;2023-07-16T02:15:24;17.00;99.90
25346;DHT22;13300;51.032;3.710;2023-07-16T02:17:50;17.00;99.90
25346;DHT22;13300;51.032;3.710;2023-07-16T02:20:18;17.00;99.90
25346;DHT22;13300;51.032;3.710;2023-07-16T02:22:44;16.90;99.90
25346;DHT22;13300;51.032;3.710;2023-07-16T02:25:10;17.00;99.90
25346;DHT22;13300;51.032;3.710;2023-07-16T02:27:35;17.00;99.90
25346;DHT22;13300;51.032;3.710;2023-07-16T02:30:01;16.90;99.90
25346;DHT22;13300;51.032;3.710;2023-07-16T02:32:27;17.10;99.90
25346;DHT22;13300;51.032;3.710;2023-07-16T02:34:53;17.10;99.90
25346;DHT22;13300;51.032;3.710;2023-07-16T02:37:18;17.10;99.90
25346;DHT22;13300;51.032;3.710;2023-07-16T02:39:45;17.00;99.90
25346;DHT22;13300;51.032;3.710;2023-07-16T02:42:14;17.00;99.90
25346;DHT22;13300;51.032;3.710;2023-07-16T02:44:40;17.00;99.90
25346;DHT22;13300;51.032;3.710;2023-07-16T02:47:10;17.00;99.90
25346;DHT22;13300;51.032;3.710;2023-07-16T02:49:37;17.00;99.90
25346;DHT22;13300;51.032;3.710;2023-07-16T02:52:03;16.90;99.90
25346;DHT22;13300;51.032;3.710;2023-07-16T02:54:28;16.80;99.90
25346;DHT22;13300;51.032;3.710;2023-07-16T02:56:54;16.80;99.90
25346;DHT22;13300;51.032;3.710;2023-07-16T02:59:20;16.70;99.90
25346;DHT22;13300;51.032;3.710;2023-07-16T03:01:45;16.80;99.90
25346;DHT22;13300;51.032;3.710;2023-07-16T03:04:11;16.70;99.90
25346;DHT22;13300;51.032;3.710;2023-07-16T03:06:37;16.70;99.90
25346;DHT22;13300;51.032;3.710;2023-07-16T03:09:03;16.70;99.90
25346;DHT22;13300;51.032;3.710;2023-07-16T03:11:29;16.70;99.90
25346;DHT22;13300;51.032;3.710;2023-07-16T03:13:54;16.80;99.90
25346;DHT22;13300;51.032;3.710;2023-07-16T03:16:20;16.80;99.90
25346;DHT22;13300;51.032;3.710;2023-07-16T03:18:46;16.90;99.90
25346;DHT22;13300;51.032;3.710;2023-07-16T03:21:12;16.90;99.90
25346;DHT22;13300;51.032;3.710;2023-07-16T03:23:37;16.90;99.90
25346;DHT22;13300;51.032;3.710;2023-07-16T03:26:03;16.90;99.90
25346;DHT22;13300;51.032;3.710;2023-07-16T03:28:29;17.00;99.90
25346;DHT22;13300;51.032;3.710;2023-07-16T03:30:55;17.00;99.90
25346;DHT22;13300;51.032;3.710;2023-07-16T03:33:21;16.90;99.90
25346;DHT22;13300;51.032;3.710;2023-07-16T03:35:48;16.90;99.90
25346;DHT22;13300;51.032;3.710;2023-07-16T03:38:14;16.90;99.90
25346;DHT22;13300;51.032;3.710;2023-07-16T03:40:42;16.90;99.90
25346;DHT22;13300;51.032;3.710;2023-07-16T03:43:08;16.80;99.90
25346;DHT22;13300;51.032;3.710;2023-07-16T03:45:36;16.80;99.90
25346;DHT22;13300;51.032;3.710;2023-07-16T03:48:02;16.80;99.90
25346;DHT22;13300;51.032;3.710;2023-07-16T03:50:27;16.70;99.90
25346;DHT22;13300;51.032;3.710;2023-07-16T03:52:53;16.70;99.90
25346;DHT22;13300;51.032;3.710;2023-07-16T03:55:19;16.80;99.90
25346;DHT22;13300;51.032;3.710;2023-07-16T03:57:45;16.80;99.90
25346;DHT22;13300;51.032;3.710;2023-07-16T04:00:11;16.80;99.90
25346;DHT22;13300;51.032;3.710;2023-07-16T04:02:36;16.80;99.90
25346;DHT22;13300;51.032;3.710;2023-07-16T04:05:05;16.80;99.90
25346;DHT22;13300;51.032;3.710;2023-07-16T04:07:31;16.60;99.90
25346;DHT22;13300;51.032;3.710;2023-07-16T04:09:57;16.60;99.90
25346;DHT22;13300;51.032;3.710;2023-07-16T04:12:23;16.60;99.90
25346;DHT22;13300;51.032;3.710;2023-07-16T04:14:49;16.60;99.90
25346;DHT22;13300;51.032;3.710;2023-07-16T04:17:14;16.60;99.90
25346;DHT22;13300;51.032;3.710;2023-07-16T04:19:40;16.60;99.90
25346;DHT22;13300;51.032;3.710;2023-07-16T04:22:08;16.60;99.90
25346;DHT22;13300;51.032;3.710;2023-07-16T04:24:34;16.60;99.90
25346;DHT22;13300;51.032;3.710;2023-07-16T04:27:00;16.60;99.90
25346;DHT22;13300;51.032;3.710;2023-07-16T04:29:25;16.60;99.90
25346;DHT22;13300;51.032;3.710;2023-07-16T04:31:51;16.60;99.90
25346;DHT22;13300;51.032;3.710;2023-07-16T04:34:17;16.60;99.90
25346;DHT22;13300;51.032;3.710;2023-07-16T04:36:43;16.60;99.90
25346;DHT22;13300;51.032;3.710;2023-07-16T04:39:09;16.70;99.90
25346;DHT22;13300;51.032;3.710;2023-07-16T04:41:35;16.70;99.90
25346;DHT22;13300;51.032;3.710;2023-07-16T04:44:01;16.80;99.90
25346;DHT22;13300;51.032;3.710;2023-07-16T04:46:26;16.80;99.90
25346;DHT22;13300;51.032;3.710;2023-07-16T04:48:52;16.80;99.90
25346;DHT22;13300;51.032;3.710;2023-07-16T04:51:18;16.90;99.90
25346;DHT22;13300;51.032;3.710;2023-07-16T04:53:44;16.80;99.90
25346;DHT22;13300;51.032;3.710;2023-07-16T04:56:14;16.70;99.90
25346;DHT22;13300;51.032;3.710;2023-07-16T04:58:42;16.70;99.90
25346;DHT22;13300;51.032;3.710;2023-07-16T05:01:09;16.70;99.90
25346;DHT22;13300;51.032;3.710;2023-07-16T05:03:35;16.70;99.90
25346;DHT22;13300;51.032;3.710;2023-07-16T05:06:04;16.80;99.90
25346;DHT22;13300;51.032;3.710;2023-07-16T05:08:30;16.80;99.90
25346;DHT22;13300;51.032;3.710;2023-07-16T05:10:55;16.90;99.90
25346;DHT22;13300;51.032;3.710;2023-07-16T05:13:21;16.90;99.90
25346;DHT22;13300;51.032;3.710;2023-07-16T05:15:47;16.90;99.90
25346;DHT22;13300;51.032;3.710;2023-07-16T05:18:13;17.00;99.90
25346;DHT22;13300;51.032;3.710;2023-07-16T05:20:38;17.10;99.90
25346;DHT22;13300;51.032;3.710;2023-07-16T05:23:04;17.00;99.90
25346;DHT22;13300;51.032;3.710;2023-07-16T05:25:30;17.00;99.90
25346;DHT22;13300;51.032;3.710;2023-07-16T05:27:56;17.10;99.90
25346;DHT22;13300;51.032;3.710;2023-07-16T05:30:22;17.20;99.90
25346;DHT22;13300;51.032;3.710;2023-07-16T05:32:47;17.30;99.90
25346;DHT22;13300;51.032;3.710;2023-07-16T05:35:13;17.30;99.90
25346;DHT22;13300;51.032;3.710;2023-07-16T05:37:39;17.20;99.90
25346;DHT22;13300;51.032;3.710;2023-07-16T05:40:05;17.20;99.90
25346;DHT22;13300;51.032;3.710;2023-07-16T05:42:34;17.40;99.90
25346;DHT22;13300;51.032;3.710;2023-07-16T05:44:59;17.50;99.90
25346;DHT22;13300;51.032;3.710;2023-07-16T05:47:25;17.50;99.90
25346;DHT22;13300;51.032;3.710;2023-07-16T05:49:51;17.60;99.90
25346;DHT22;13300;51.032;3.710;2023-07-16T05:52:16;17.70;99.90
25346;DHT22;13300;51.032;3.710;2023-07-16T05:54:44;17.80;99.90
25346;DHT22;13300;51.032;3.710;2023-07-16T05:57:11;17.70;99.90
25346;DHT22;13300;51.032;3.710;2023-07-16T05:59:37;17.70;99.90
25346;DHT22;13300;51.032;3.710;2023-07-16T06:02:04;17.70;99.90
25346;DHT22;13300;51.032;3.710;2023-07-16T06:04:30;17.80;99.90
25346;DHT22;13300;51.032;3.710;2023-07-16T06:06:56;17.80;99.90
25346;DHT22;13300;51.032;3.710;2023-07-16T06:09:45;17.80;99.90
25346;DHT22;13300;51.032;3.710;2023-07-16T06:12:11;17.80;99.90
25346;DHT22;13300;51.032;3.710;2023-07-16T06:14:37;17.90;99.90
25346;DHT22;13300;51.032;3.710;2023-07-16T06:17:03;18.00;99.90
25346;DHT22;13300;51.032;3.710;2023-07-16T06:19:28;18.10;99.90
25346;DHT22;13300;51.032;3.710;2023-07-16T06:21:54;18.20;99.90
25346;DHT22;13300;51.032;3.710;2023-07-16T06:24:20;18.20;99.90
25346;DHT22;13300;51.032;3.710;2023-07-16T06:26:45;18.50;99.90
25346;DHT22;13300;51.032;3.710;2023-07-16T06:29:13;18.80;99.90
25346;DHT22;13300;51.032;3.710;2023-07-16T06:31:38;18.90;99.90
25346;DHT22;13300;51.032;3.710;2023-07-16T06:34:06;19.00;99.90
25346;DHT22;13300;51.032;3.710;2023-07-16T06:36:31;18.80;99.90
25346;DHT22;13300;51.032;3.710;2023-07-16T06:38:57;18.90;99.90
25346;DHT22;13300;51.032;3.710;2023-07-16T06:41:28;18.90;99.90
25346;DHT22;13300;51.032;3.710;2023-07-16T06:43:55;19.10;99.90
25346;DHT22;13300;51.032;3.710;2023-07-16T06:46:23;19.10;99.90
25346;DHT22;13300;51.032;3.710;2023-07-16T06:48:48;19.10;99.90
25346;DHT22;13300;51.032;3.710;2023-07-16T06:51:24;18.90;99.90
25346;DHT22;13300;51.032;3.710;2023-07-16T06:53:51;18.80;99.90
25346;DHT22;13300;51.032;3.710;2023-07-16T06:56:16;18.80;99.90
25346;DHT22;13300;51.032;3.710;2023-07-16T06:58:46;18.80;99.90
25346;DHT22;13300;51.032;3.710;2023-07-16T07:01:11;18.80;99.90
25346;DHT22;13300;51.032;3.710;2023-07-16T07:03:37;18.90;99.90
25346;DHT22;13300;51.032;3.710;2023-07-16T07:06:03;19.10;99.90
25346;DHT22;13300;51.032;3.710;2023-07-16T07:08:29;19.30;99.90
25346;DHT22;13300;51.032;3.710;2023-07-16T07:10:58;19.40;99.90
25346;DHT22;13300;51.032;3.710;2023-07-16T07:13:31;19.60;99.90
25346;DHT22;13300;51.032;3.710;2023-07-16T07:15:57;19.70;99.90
25346;DHT22;13300;51.032;3.710;2023-07-16T07:18:25;20.00;99.90
25346;DHT22;13300;51.032;3.710;2023-07-16T07:20:52;20.10;99.90
25346;DHT22;13300;51.032;3.710;2023-07-16T07:23:28;20.10;99.90
25346;DHT22;13300;51.032;3.710;2023-07-16T07:25:54;20.20;99.90
25346;DHT22;13300;51.032;3.710;2023-07-16T07:28:27;20.60;99.90
25346;DHT22;13300;51.032;3.710;2023-07-16T07:30:53;20.80;99.90
25346;DHT22;13300;51.032;3.710;2023-07-16T07:33:26;21.00;99.90
25346;DHT22;13300;51.032;3.710;2023-07-16T07:36:14;21.20;99.90
25346;DHT22;13300;51.032;3.710;2023-07-16T07:38:45;21.20;99.90
25346;DHT22;13300;51.032;3.710;2023-07-16T07:41:16;21.10;99.90
25346;DHT22;13300;51.032;3.710;2023-07-16T07:43:42;20.60;99.90
25346;DHT22;13300;51.032;3.710;2023-07-16T07:46:08;20.50;99.90
25346;DHT22;13300;51.032;3.710;2023-07-16T07:48:34;20.60;99.90
25346;DHT22;13300;51.032;3.710;2023-07-16T07:51:00;20.80;99.90
25346;DHT22;13300;51.032;3.710;2023-07-16T07:53:31;20.80;99.90
25346;DHT22;13300;51.032;3.710;2023-07-16T07:56:22;21.60;99.90
25346;DHT22;13300;51.032;3.710;2023-07-16T07:58:48;22.40;99.90
25346;DHT22;13300;51.032;3.710;2023-07-16T08:01:14;22.40;99.90
25346;DHT22;13300;51.032;3.710;2023-07-16T08:03:39;22.00;99.90
25346;DHT22;13300;51.032;3.710;2023-07-16T08:06:11;22.00;99.90
25346;DHT22;13300;51.032;3.710;2023-07-16T08:08:38;21.90;99.90
25346;DHT22;13300;51.032;3.710;2023-07-16T08:11:03;21.40;99.90
25346;DHT22;13300;51.032;3.710;2023-07-16T08:13:29;20.90;99.90
25346;DHT22;13300;51.032;3.710;2023-07-16T08:15:55;21.10;99.90
25346;DHT22;13300;51.032;3.710;2023-07-16T08:18:23;21.50;99.90
25346;DHT22;13300;51.032;3.710;2023-07-16T08:20:48;21.50;99.90
25346;DHT22;13300;51.032;3.710;2023-07-16T08:23:14;21.40;99.90
25346;DHT22;13300;51.032;3.710;2023-07-16T08:25:40;21.30;99.90
25346;DHT22;13300;51.032;3.710;2023-07-16T08:28:06;21.00;99.90
25346;DHT22;13300;51.032;3.710;2023-07-16T08:30:33;20.70;99.90
25346;DHT22;13300;51.032;3.710;2023-07-16T08:32:59;20.60;99.90
25346;DHT22;13300;51.032;3.710;2023-07-16T08:35:24;20.50;99.90
25346;DHT22;13300;51.032;3.710;2023-07-16T08:37:50;20.20;99.90
25346;DHT22;13300;51.032;3.710;2023-07-16T08:40:16;20.20;99.90
25346;DHT22;13300;51.032;3.710;2023-07-16T08:42:44;20.10;99.90
25346;DHT22;13300;51.032;3.710;2023-07-16T08:45:11;20.20;99.90
25346;DHT22;13300;51.032;3.710;2023-07-16T08:47:37;20.40;99.90
25346;DHT22;13300;51.032;3.710;2023-07-16T08:50:04;20.30;99.90
25346;DHT22;13300;51.032;3.710;2023-07-16T08:52:31;20.30;99.90
25346;DHT22;13300;51.032;3.710;2023-07-16T08:54:57;20.50;99.90
25346;DHT22;13300;51.032;3.710;2023-07-16T08:57:42;20.70;99.90
25346;DHT22;13300;51.032;3.710;2023-07-16T09:00:09;20.40;99.90
25346;DHT22;13300;51.032;3.710;2023-07-16T09:02:35;20.20;99.90
25346;DHT22;13300;51.032;3.710;2023-07-16T09:05:01;20.10;99.90
25346;DHT22;13300;51.032;3.710;2023-07-16T09:07:27;20.00;99.90
25346;DHT22;13300;51.032;3.710;2023-07-16T09:09:59;20.00;99.90
25346;DHT22;13300;51.032;3.710;2023-07-16T09:12:27;19.90;99.90
25346;DHT22;13300;51.032;3.710;2023-07-16T09:14:53;20.00;99.90
25346;DHT22;13300;51.032;3.710;2023-07-16T09:17:21;19.90;99.90
25346;DHT22;13300;51.032;3.710;2023-07-16T09:23:20;19.70;99.90
25346;DHT22;13300;51.032;3.710;2023-07-16T09:26:10;19.50;99.90
25346;DHT22;13300;51.032;3.710;2023-07-16T09:28:36;19.40;99.90
25346;DHT22;13300;51.032;3.710;2023-07-16T09:31:07;19.40;99.90
25346;DHT22;13300;51.032;3.710;2023-07-16T09:33:34;19.40;99.90
25346;DHT22;13300;51.032;3.710;2023-07-16T09:36:00;19.60;99.90
25346;DHT22;13300;51.032;3.710;2023-07-16T09:38:56;20.10;99.90
25346;DHT22;13300;51.032;3.710;2023-07-16T09:41:24;21.10;99.90
25346;DHT22;13300;51.032;3.710;2023-07-16T09:43:55;21.40;99.90
25346;DHT22;13300;51.032;3.710;2023-07-16T09:46:55;21.40;99.90
25346;DHT22;13300;51.032;3.710;2023-07-16T09:49:48;21.10;99.90
25346;DHT22;13300;51.032;3.710;2023-07-16T09:52:26;21.10;99.90
25346;DHT22;13300;51.032;3.710;2023-07-16T09:55:14;21.20;99.90
25346;DHT22;13300;51.032;3.710;2023-07-16T09:57:43;21.40;99.90
25346;DHT22;13300;51.032;3.710;2023-07-16T10:00:12;21.40;99.90
25346;DHT22;13300;51.032;3.710;2023-07-16T10:02:59;21.70;99.90
25346;DHT22;13300;51.032;3.710;2023-07-16T10:05:27;22.10;99.90
25346;DHT22;13300;51.032;3.710;2023-07-16T10:08:19;22.00;99.90
25346;DHT22;13300;51.032;3.710;2023-07-16T10:10:54;22.00;99.90
25346;DHT22;13300;51.032;3.710;2023-07-16T10:13:23;22.20;99.90
25346;DHT22;13300;51.032;3.710;2023-07-16T10:15:56;22.30;99.90
25346;DHT22;13300;51.032;3.710;2023-07-16T10:18:30;21.90;99.90
25346;DHT22;13300;51.032;3.710;2023-07-16T10:21:04;21.20;99.90
25346;DHT22;13300;51.032;3.710;2023-07-16T10:23:43;20.80;99.90
25346;DHT22;13300;51.032;3.710;2023-07-16T10:26:11;21.20;99.90
25346;DHT22;13300;51.032;3.710;2023-07-16T10:28:38;22.50;99.90
25346;DHT22;13300;51.032;3.710;2023-07-16T10:31:04;24.10;99.90
25346;DHT22;13300;51.032;3.710;2023-07-16T10:33:30;25.40;99.90
25346;DHT22;13300;51.032;3.710;2023-07-16T10:35:57;25.90;99.90
25346;DHT22;13300;51.032;3.710;2023-07-16T10:38:26;25.60;99.90
25346;DHT22;13300;51.032;3.710;2023-07-16T10:40:52;25.30;99.90
25346;DHT22;13300;51.032;3.710;2023-07-16T10:43:17;26.10;99.90
25346;DHT22;13300;51.032;3.710;2023-07-16T10:45:43;26.70;99.90
25346;DHT22;13300;51.032;3.710;2023-07-16T10:48:15;27.00;99.90
25346;DHT22;13300;51.032;3.710;2023-07-16T10:50:41;27.00;99.90
25346;DHT22;13300;51.032;3.710;2023-07-16T10:53:06;26.70;99.90
25346;DHT22;13300;51.032;3.710;2023-07-16T10:55:32;26.40;99.90
25346;DHT22;13300;51.032;3.710;2023-07-16T10:58:04;25.70;99.90
25346;DHT22;13300;51.032;3.710;2023-07-16T11:00:31;25.90;99.90
25346;DHT22;13300;51.032;3.710;2023-07-16T11:03:25;25.90;99.90
25346;DHT22;13300;51.032;3.710;2023-07-16T11:05:55;26.10;99.90
25346;DHT22;13300;51.032;3.710;2023-07-16T11:08:22;25.90;99.90
25346;DHT22;13300;51.032;3.710;2023-07-16T11:10:56;26.90;99.90
25346;DHT22;13300;51.032;3.710;2023-07-16T11:13:29;27.00;99.30
25346;DHT22;13300;51.032;3.710;2023-07-16T11:15:55;27.30;99.30
25346;DHT22;13300;51.032;3.710;2023-07-16T11:18:24;27.30;98.50
25346;DHT22;13300;51.032;3.710;2023-07-16T11:20:53;27.20;99.80
25346;DHT22;13300;51.032;3.710;2023-07-16T11:23:20;27.20;99.90
25346;DHT22;13300;51.032;3.710;2023-07-16T11:25:47;27.60;99.20
25346;DHT22;13300;51.032;3.710;2023-07-16T11:28:15;27.30;98.70
25346;DHT22;13300;51.032;3.710;2023-07-16T11:30:41;28.00;98.50
25346;DHT22;13300;51.032;3.710;2023-07-16T11:33:11;27.30;98.40
25346;DHT22;13300;51.032;3.710;2023-07-16T11:35:38;26.90;99.20
25346;DHT22;13300;51.032;3.710;2023-07-16T11:38:07;26.20;99.90
25346;DHT22;13300;51.032;3.710;2023-07-16T11:40:36;25.80;99.90
25346;DHT22;13300;51.032;3.710;2023-07-16T11:43:10;25.10;99.90
25346;DHT22;13300;51.032;3.710;2023-07-16T11:45:36;24.30;99.90
25346;DHT22;13300;51.032;3.710;2023-07-16T11:48:04;24.30;99.90
25346;DHT22;13300;51.032;3.710;2023-07-16T11:50:31;24.30;99.90
25346;DHT22;13300;51.032;3.710;2023-07-16T11:52:59;24.40;99.90
25346;DHT22;13300;51.032;3.710;2023-07-16T11:55:26;24.40;99.90
25346;DHT22;13300;51.032;3.710;2023-07-16T11:57:52;24.50;99.90
25346;DHT22;13300;51.032;3.710;2023-07-16T12:00:22;24.60;99.90
25346;DHT22;13300;51.032;3.710;2023-07-16T12:02:48;24.60;99.90
25346;DHT22;13300;51.032;3.710;2023-07-16T12:05:18;24.60;99.90
25346;DHT22;13300;51.032;3.710;2023-07-16T12:07:44;24.70;99.90
25346;DHT22;13300;51.032;3.710;2023-07-16T12:10:09;24.50;99.90
25346;DHT22;13300;51.032;3.710;2023-07-16T12:12:36;24.50;99.90
25346;DHT22;13300;51.032;3.710;2023-07-16T12:15:04;24.70;99.90
25346;DHT22;13300;51.032;3.710;2023-07-16T12:17:33;25.30;99.90
25346;DHT22;13300;51.032;3.710;2023-07-16T12:19:59;26.40;99.90
25346;DHT22;13300;51.032;3.710;2023-07-16T12:22:25;27.10;99.90
25346;DHT22;13300;51.032;3.710;2023-07-16T12:24:51;26.70;99.80
25346;DHT22;13300;51.032;3.710;2023-07-16T12:27:18;26.60;99.90
25346;DHT22;13300;51.032;3.710;2023-07-16T12:29:44;26.70;99.90
25346;DHT22;13300;51.032;3.710;2023-07-16T12:32:10;26.70;99.20
25346;DHT22;13300;51.032;3.710;2023-07-16T12:34:36;26.60;99.30
25346;DHT22;13300;51.032;3.710;2023-07-16T12:37:02;25.90;99.00
25346;DHT22;13300;51.032;3.710;2023-07-16T12:39:28;25.20;99.90
25346;DHT22;13300;51.032;3.710;2023-07-16T12:41:54;24.90;99.90
25346;DHT22;13300;51.032;3.710;2023-07-16T12:44:20;24.60;99.90
25346;DHT22;13300;51.032;3.710;2023-07-16T12:46:46;24.50;99.90
25346;DHT22;13300;51.032;3.710;2023-07-16T12:49:11;24.30;99.90
25346;DHT22;13300;51.032;3.710;2023-07-16T12:51:37;24.30;99.90
25346;DHT22;13300;51.032;3.710;2023-07-16T12:54:05;24.10;99.90
25346;DHT22;13300;51.032;3.710;2023-07-16T12:56:41;24.00;99.90
25346;DHT22;13300;51.032;3.710;2023-07-16T12:59:06;23.80;99.90
25346;DHT22;13300;51.032;3.710;2023-07-16T13:01:32;23.70;99.90
25346;DHT22;13300;51.032;3.710;2023-07-16T13:03:58;23.90;99.90
25346;DHT22;13300;51.032;3.710;2023-07-16T13:06:24;24.20;99.90
25346;DHT22;13300;51.032;3.710;2023-07-16T13:08:53;24.50;99.90
25346;DHT22;13300;51.032;3.710;2023-07-16T13:11:19;24.50;99.90
25346;DHT22;13300;51.032;3.710;2023-07-16T13:13:45;24.10;99.90
25346;DHT22;13300;51.032;3.710;2023-07-16T13:16:11;24.30;99.90
25346;DHT22;13300;51.032;3.710;2023-07-16T13:18:36;25.10;99.90
25346;DHT22;13300;51.032;3.710;2023-07-16T13:21:02;25.90;99.90
25346;DHT22;13300;51.032;3.710;2023-07-16T13:23:28;26.30;99.10
25346;DHT22;13300;51.032;3.710;2023-07-16T13:25:54;26.40;98.90
25346;DHT22;13300;51.032;3.710;2023-07-16T13:28:21;25.60;99.30
25346;DHT22;13300;51.032;3.710;2023-07-16T13:30:48;25.10;99.90
25346;DHT22;13300;51.032;3.710;2023-07-16T13:33:15;24.40;99.90
25346;DHT22;13300;51.032;3.710;2023-07-16T13:35:42;23.80;99.90
25346;DHT22;13300;51.032;3.710;2023-07-16T13:38:08;23.40;99.90
25346;DHT22;13300;51.032;3.710;2023-07-16T13:40:34;23.20;99.90
25346;DHT22;13300;51.032;3.710;2023-07-16T13:42:59;23.30;99.90
25346;DHT22;13300;51.032;3.710;2023-07-16T13:45:25;23.40;99.90
25346;DHT22;13300;51.032;3.710;2023-07-16T13:47:51;23.40;99.90
25346;DHT22;13300;51.032;3.710;2023-07-16T13:50:21;23.60;99.90
25346;DHT22;13300;51.032;3.710;2023-07-16T13:52:46;23.90;99.90
25346;DHT22;13300;51.032;3.710;2023-07-16T13:55:14;24.00;99.90
25346;DHT22;13300;51.032;3.710;2023-07-16T13:57:39;24.10;99.90
25346;DHT22;13300;51.032;3.710;2023-07-16T14:00:07;24.00;99.90
25346;DHT22;13300;51.032;3.710;2023-07-16T14:02:35;24.20;99.90
25346;DHT22;13300;51.032;3.710;2023-07-16T14:05:03;25.60;99.90
25346;DHT22;13300;51.032;3.710;2023-07-16T14:07:30;27.10;99.40
25346;DHT22;13300;51.032;3.710;2023-07-16T14:09:55;27.40;97.90
25346;DHT22;13300;51.032;3.710;2023-07-16T14:12:24;27.50;97.70
25346;DHT22;13300;51.032;3.710;2023-07-16T14:14:57;27.00;97.50
25346;DHT22;13300;51.032;3.710;2023-07-16T14:17:22;26.20;98.10
25346;DHT22;13300;51.032;3.710;2023-07-16T14:19:49;25.40;99.40
25346;DHT22;13300;51.032;3.710;2023-07-16T14:22:15;25.00;99.90
25346;DHT22;13300;51.032;3.710;2023-07-16T14:24:42;24.60;99.90
25346;DHT22;13300;51.032;3.710;2023-07-16T14:27:08;24.10;99.90
25346;DHT22;13300;51.032;3.710;2023-07-16T14:29:37;24.00;99.90
25346;DHT22;13300;51.032;3.710;2023-07-16T14:32:03;24.00;99.90
25346;DHT22;13300;51.032;3.710;2023-07-16T14:34:29;24.00;99.90
25346;DHT22;13300;51.032;3.710;2023-07-16T14:36:55;23.90;99.90
25346;DHT22;13300;51.032;3.710;2023-07-16T14:39:21;23.60;99.90
25346;DHT22;13300;51.032;3.710;2023-07-16T14:41:47;23.50;99.90
25346;DHT22;13300;51.032;3.710;2023-07-16T14:44:12;23.60;99.90
25346;DHT22;13300;51.032;3.710;2023-07-16T14:46:38;23.40;99.90
25346;DHT22;13300;51.032;3.710;2023-07-16T14:49:04;23.40;99.90
25346;DHT22;13300;51.032;3.710;2023-07-16T14:51:30;23.50;99.90
25346;DHT22;13300;51.032;3.710;2023-07-16T14:53:56;23.30;99.90
25346;DHT22;13300;51.032;3.710;2023-07-16T14:56:22;23.00;99.90
25346;DHT22;13300;51.032;3.710;2023-07-16T14:58:47;22.80;99.90
25346;DHT22;13300;51.032;3.710;2023-07-16T15:01:21;22.70;99.90
25346;DHT22;13300;51.032;3.710;2023-07-16T15:03:46;22.70;99.90
25346;DHT22;13300;51.032;3.710;2023-07-16T15:06:13;22.50;99.90
25346;DHT22;13300;51.032;3.710;2023-07-16T15:08:40;22.30;99.90
25346;DHT22;13300;51.032;3.710;2023-07-16T15:11:06;21.50;99.90
25346;DHT22;13300;51.032;3.710;2023-07-16T15:13:31;21.00;99.90
25346;DHT22;13300;51.032;3.710;2023-07-16T15:16:00;20.60;99.90
25346;DHT22;13300;51.032;3.710;2023-07-16T15:18:26;20.60;99.90
25346;DHT22;13300;51.032;3.710;2023-07-16T15:21:00;20.50;99.90
25346;DHT22;13300;51.032;3.710;2023-07-16T15:23:31;20.50;99.90
25346;DHT22;13300;51.032;3.710;2023-07-16T15:26:05;20.60;99.90
25346;DHT22;13300;51.032;3.710;2023-07-16T15:28:32;20.80;99.90
25346;DHT22;13300;51.032;3.710;2023-07-16T15:31:23;20.90;99.90
25346;DHT22;13300;51.032;3.710;2023-07-16T15:37:39;20.30;99.90
25346;DHT22;13300;51.032;3.710;2023-07-16T15:40:15;20.20;99.90
25346;DHT22;13300;51.032;3.710;2023-07-16T15:42:41;20.30;99.90
25346;DHT22;13300;51.032;3.710;2023-07-16T15:45:11;20.50;99.90
25346;DHT22;13300;51.032;3.710;2023-07-16T15:47:42;20.70;99.90
25346;DHT22;13300;51.032;3.710;2023-07-16T15:50:09;21.00;99.90